createdAt,value
2019-05-25T00:01:38.252Z,65.60
2019-05-25T00:04:06.704Z,66.30
2019-05-25T00:06:36.934Z,64.80
2019-05-25T00:09:07.546Z,65.70
2019-05-25T00:11:35.958Z,65.60
2019-05-25T00:14:04.553Z,66.40
2019-05-25T00:16:33.939Z,65.80
2019-05-25T00:19:02.379Z,65.60
2019-05-25T00:21:30.807Z,65.70
2019-05-25T00:24:11.762Z,66.00
2019-05-25T00:26:29.432Z,66.30
2019-05-25T00:28:57.906Z,66.50
2019-05-25T00:31:27.901Z,66.30
2019-05-25T00:33:56.400Z,67.30
2019-05-25T00:36:25.104Z,68.30
2019-05-25T00:38:53.566Z,68.80
2019-05-25T00:41:22.001Z,68.80
2019-05-25T00:43:50.421Z,68.60
2019-05-25T00:46:18.891Z,68.20
2019-05-25T00:48:48.839Z,68.20
2019-05-25T00:51:17.359Z,67.50
2019-05-25T00:53:45.794Z,68.00
2019-05-25T00:56:14.234Z,67.30
2019-05-25T00:58:42.742Z,67.60
2019-05-25T01:01:11.262Z,67.40
2019-05-25T01:04:06.527Z,67.70
2019-05-25T01:06:34.970Z,68.40
2019-05-25T01:09:05.035Z,68.70
2019-05-25T01:11:33.615Z,69.20
2019-05-25T01:14:02.038Z,70.70
2019-05-25T01:16:30.490Z,70.40
2019-05-25T01:18:58.948Z,70.30
2019-05-25T01:21:27.694Z,70.50
2019-05-25T01:23:56.195Z,69.20
2019-05-25T01:26:24.674Z,68.60
2019-05-25T01:28:53.097Z,69.50
2019-05-25T01:31:21.553Z,69.10
2019-05-25T01:33:50.118Z,69.80
2019-05-25T01:36:18.565Z,69.80
2019-05-25T01:38:48.568Z,69.10
2019-05-25T01:41:17.014Z,69.90
2019-05-25T01:43:45.432Z,71.00
2019-05-25T01:46:13.891Z,71.30
2019-05-25T01:48:42.398Z,70.90
2019-05-25T01:51:10.895Z,71.40
2019-05-25T01:53:39.323Z,71.60
2019-05-25T01:56:07.754Z,71.70
2019-05-25T01:58:36.347Z,71.90
2019-05-25T02:01:05.442Z,70.40
2019-05-25T02:03:33.930Z,71.50
2019-05-25T02:06:02.380Z,71.20
2019-05-25T02:08:30.833Z,71.00
2019-05-25T02:10:59.250Z,71.80
2019-05-25T02:13:27.758Z,71.30
2019-05-25T02:15:56.170Z,71.40
2019-05-25T02:18:24.635Z,72.20
2019-05-25T02:20:53.119Z,72.80
2019-05-25T02:23:21.799Z,72.70
2019-05-25T02:25:50.286Z,73.00
2019-05-25T02:28:18.728Z,73.30
2019-05-25T02:30:47.138Z,73.20
2019-05-25T02:33:17.139Z,73.00
2019-05-25T02:35:45.547Z,72.70
2019-05-25T02:38:13.988Z,72.60
2019-05-25T02:40:43.983Z,72.00
2019-05-25T02:43:12.603Z,71.70
2019-05-25T02:45:41.039Z,72.40
2019-05-25T02:48:09.652Z,73.10
2019-05-25T02:50:38.067Z,73.60
2019-05-25T02:53:06.561Z,74.20
2019-05-25T02:55:35.431Z,74.50
2019-05-25T02:58:05.662Z,74.20
2019-05-25T03:00:36.460Z,74.00
2019-05-25T03:03:07.187Z,73.40
2019-05-25T03:05:35.709Z,74.10
2019-05-25T03:08:04.687Z,74.10
2019-05-25T03:10:33.958Z,74.40
2019-05-25T03:13:03.287Z,74.60
2019-05-25T03:15:31.953Z,74.80
2019-05-25T03:18:00.611Z,76.00
2019-05-25T03:20:29.154Z,76.10
2019-05-25T03:22:57.655Z,76.10
2019-05-25T03:25:27.743Z,75.60
2019-05-25T03:27:56.173Z,76.20
2019-05-25T03:30:33.198Z,76.90
2019-05-25T03:33:01.803Z,77.50
2019-05-25T03:35:30.485Z,77.30
2019-05-25T03:37:58.903Z,77.70
2019-05-25T03:40:28.884Z,78.50
2019-05-25T03:42:58.968Z,79.20
2019-05-25T03:45:27.477Z,79.40
2019-05-25T03:47:55.918Z,79.40
2019-05-25T03:50:24.679Z,79.30
2019-05-25T03:52:53.234Z,79.00
2019-05-25T03:55:23.286Z,78.70
2019-05-25T03:57:51.719Z,79.70
2019-05-25T04:00:32.094Z,80.20
2019-05-25T04:03:00.524Z,80.40
2019-05-25T04:05:29.106Z,80.60
2019-05-25T04:07:57.528Z,80.30
2019-05-25T04:10:25.968Z,79.90
2019-05-25T04:12:55.926Z,80.10
2019-05-25T04:15:24.711Z,80.20
2019-05-25T04:17:53.147Z,79.60
2019-05-25T04:20:21.599Z,79.00
2019-05-25T04:22:50.104Z,79.20
2019-05-25T04:25:18.523Z,79.60
2019-05-25T04:27:46.980Z,79.50
2019-05-25T04:30:15.730Z,79.60
2019-05-25T04:32:44.183Z,79.90
2019-05-25T04:35:12.746Z,79.60
2019-05-25T04:37:41.197Z,79.50
2019-05-25T04:40:10.139Z,79.40
2019-05-25T04:42:38.642Z,79.20
2019-05-25T04:45:07.519Z,78.50
2019-05-25T04:47:36.107Z,78.20
2019-05-25T04:50:07.644Z,78.10
2019-05-25T04:52:36.091Z,78.00
2019-05-25T04:55:05.456Z,78.10
2019-05-25T04:57:33.983Z,77.20
2019-05-25T05:00:02.500Z,74.60
2019-05-25T05:02:32.472Z,73.20
2019-05-25T05:05:00.889Z,71.70
2019-05-25T05:07:29.337Z,69.30
2019-05-25T05:10:02.669Z,67.70
2019-05-25T05:12:28.129Z,67.00
2019-05-25T05:14:56.662Z,66.60
2019-05-25T05:17:25.230Z,65.80
2019-05-25T05:19:53.650Z,67.30
2019-05-25T05:22:22.176Z,67.20
2019-05-25T05:24:50.708Z,65.60
2019-05-25T05:27:19.127Z,65.70
2019-05-25T05:29:47.558Z,62.50
2019-05-25T05:32:27.097Z,61.40
2019-05-25T05:34:47.746Z,61.60
2019-05-25T05:37:16.508Z,61.90
2019-05-25T05:39:45.292Z,62.40
2019-05-25T05:42:14.751Z,61.70
2019-05-25T05:44:45.751Z,61.20
2019-05-25T05:47:16.541Z,60.90
2019-05-25T05:49:46.248Z,60.30
2019-05-25T05:52:17.011Z,60.50
2019-05-25T05:54:46.689Z,59.70
2019-05-25T05:57:16.795Z,60.30
2019-05-25T05:59:45.516Z,57.70
2019-05-25T06:02:13.939Z,60.50
2019-05-25T06:04:43.926Z,60.50
2019-05-25T06:07:12.350Z,61.10
2019-05-25T06:09:40.796Z,61.80
2019-05-25T06:12:09.282Z,61.90
2019-05-25T06:14:37.731Z,60.40
2019-05-25T06:17:06.258Z,57.10
2019-05-25T06:19:34.720Z,52.20
2019-05-25T06:22:03.250Z,53.00
2019-05-25T06:24:31.703Z,52.50
2019-05-25T06:27:00.119Z,53.40
2019-05-25T06:29:28.592Z,52.20
2019-05-25T06:31:57.027Z,49.90
2019-05-25T06:34:25.489Z,51.40
2019-05-25T06:36:53.903Z,50.60
2019-05-25T06:39:22.351Z,51.40
2019-05-25T06:41:52.363Z,48.70
2019-05-25T06:44:20.788Z,45.90
2019-05-25T06:46:49.426Z,50.30
2019-05-25T06:49:17.956Z,53.60
2019-05-25T06:51:46.466Z,51.70
2019-05-25T06:54:14.910Z,49.60
2019-05-25T06:56:43.366Z,53.30
2019-05-25T06:59:11.811Z,53.80
2019-05-25T07:01:40.410Z,52.50
2019-05-25T07:04:08.823Z,51.20
2019-05-25T07:06:37.272Z,50.60
2019-05-25T07:09:07.324Z,52.10
2019-05-25T07:11:35.763Z,51.60
2019-05-25T07:14:04.641Z,48.40
2019-05-25T07:16:33.158Z,47.30
2019-05-25T07:19:01.604Z,50.20
2019-05-25T07:21:31.711Z,45.50
2019-05-25T07:24:00.178Z,44.70
2019-05-25T07:26:28.681Z,42.30
2019-05-25T07:28:57.107Z,42.10
2019-05-25T07:31:25.820Z,40.80
2019-05-25T07:33:54.255Z,41.00
2019-05-25T07:36:22.743Z,40.50
2019-05-25T07:38:51.180Z,39.90
2019-05-25T07:41:19.632Z,40.30
2019-05-25T07:43:48.124Z,40.60
2019-05-25T07:46:17.314Z,39.70
2019-05-25T07:48:46.086Z,40.20
2019-05-25T07:51:14.500Z,39.90
2019-05-25T07:53:42.959Z,42.10
2019-05-25T07:56:11.429Z,39.20
2019-05-25T07:58:41.192Z,40.40
2019-05-25T08:01:09.634Z,41.20
2019-05-25T08:03:39.911Z,38.80
2019-05-25T08:06:08.557Z,39.30
2019-05-25T08:08:36.993Z,39.10
2019-05-25T08:11:05.499Z,38.10
2019-05-25T08:13:33.938Z,37.30
2019-05-25T08:16:02.365Z,37.80
2019-05-25T08:18:30.898Z,36.50
2019-05-25T08:21:00.941Z,35.60
2019-05-25T08:23:29.583Z,35.00
2019-05-25T08:25:58.016Z,35.40
2019-05-25T08:28:32.629Z,35.50
2019-05-25T08:30:56.687Z,36.40
2019-05-25T08:33:25.265Z,36.90
2019-05-25T08:35:53.672Z,36.90
2019-05-25T08:38:22.132Z,37.60
2019-05-25T08:40:50.644Z,36.40
2019-05-25T08:43:19.140Z,34.10
2019-05-25T08:45:47.600Z,33.90
2019-05-25T08:48:16.436Z,34.10
2019-05-25T08:50:44.869Z,36.50
2019-05-25T08:53:13.382Z,38.00
2019-05-25T08:55:41.887Z,36.60
2019-05-25T08:58:10.398Z,36.50
2019-05-25T09:00:38.849Z,35.70
2019-05-25T09:03:07.637Z,36.60
2019-05-25T09:05:36.094Z,34.10
2019-05-25T09:08:04.679Z,34.10
2019-05-25T09:10:33.129Z,33.80
2019-05-25T09:13:01.553Z,33.80
2019-05-25T09:15:30.037Z,34.50
2019-05-25T09:17:58.447Z,34.70
2019-05-25T09:20:26.985Z,35.90
2019-05-25T09:22:55.410Z,34.80
2019-05-25T09:25:23.875Z,36.00
2019-05-25T09:27:52.286Z,37.30
2019-05-25T09:30:20.984Z,35.80
2019-05-25T09:32:49.402Z,36.10
2019-05-25T09:35:17.914Z,35.20
2019-05-25T09:37:46.378Z,37.00
2019-05-25T09:40:15.460Z,36.90
2019-05-25T09:42:45.509Z,35.90
2019-05-25T09:45:14.503Z,34.70
2019-05-25T09:47:43.112Z,34.90
2019-05-25T09:50:11.947Z,37.00
2019-05-25T09:52:40.359Z,38.10
2019-05-25T09:55:09.822Z,38.60
2019-05-25T09:57:41.426Z,37.30
2019-05-25T10:00:10.895Z,35.10
2019-05-25T10:02:39.451Z,34.20
2019-05-25T10:05:09.175Z,33.30
2019-05-25T10:07:39.467Z,32.90
2019-05-25T10:10:09.954Z,31.90
2019-05-25T10:12:38.464Z,32.80
2019-05-25T10:15:07.625Z,33.50
2019-05-25T10:17:36.071Z,32.60
2019-05-25T10:20:06.027Z,32.20
2019-05-25T10:22:34.458Z,32.60
2019-05-25T10:25:03.442Z,33.60
2019-05-25T10:27:34.194Z,36.20
2019-05-25T10:30:02.042Z,34.30
2019-05-25T10:32:30.482Z,33.30
2019-05-25T10:34:58.978Z,35.30
2019-05-25T10:37:29.184Z,36.70
2019-05-25T10:39:57.630Z,35.10
2019-05-25T10:42:26.090Z,36.80
2019-05-25T10:44:54.526Z,37.70
2019-05-25T10:47:22.971Z,36.40
2019-05-25T10:49:51.410Z,37.20
2019-05-25T10:52:19.899Z,37.50
2019-05-25T10:54:48.347Z,35.00
2019-05-25T10:57:16.798Z,36.80
2019-05-25T10:59:53.037Z,34.80
2019-05-25T11:02:15.408Z,35.30
2019-05-25T11:04:43.890Z,35.40
2019-05-25T11:07:12.349Z,35.40
2019-05-25T11:09:40.780Z,33.30
2019-05-25T11:12:09.221Z,33.70
2019-05-25T11:14:37.686Z,35.90
2019-05-25T11:17:06.120Z,35.50
2019-05-25T11:19:34.603Z,35.20
2019-05-25T11:22:03.151Z,35.80
2019-05-25T11:24:31.575Z,33.90
2019-05-25T11:27:00.024Z,31.80
2019-05-25T11:29:28.463Z,31.80
2019-05-25T11:32:03.355Z,32.30
2019-05-25T11:34:28.595Z,34.70
2019-05-25T11:36:57.150Z,35.50
2019-05-25T11:39:25.664Z,34.40
2019-05-25T11:41:55.627Z,32.90
2019-05-25T11:44:24.076Z,32.80
2019-05-25T11:46:52.488Z,32.70
2019-05-25T11:49:22.738Z,32.20
2019-05-25T11:51:51.207Z,32.70
2019-05-25T11:54:19.699Z,33.10
2019-05-25T11:56:49.720Z,32.80
2019-05-25T11:59:18.142Z,32.60
2019-05-25T12:01:46.631Z,33.10
2019-05-25T12:04:15.100Z,32.80
2019-05-25T12:06:43.623Z,33.10
2019-05-25T12:09:12.052Z,31.60
2019-05-25T12:11:42.038Z,32.30
2019-05-25T12:14:10.546Z,31.40
2019-05-25T12:16:38.987Z,31.50
2019-05-25T12:19:09.240Z,32.30
2019-05-25T12:21:37.709Z,30.40
2019-05-25T12:24:06.476Z,29.70
2019-05-25T12:26:34.921Z,29.80
2019-05-25T12:29:04.939Z,29.70
2019-05-25T12:31:33.451Z,29.70
2019-05-25T12:34:01.881Z,29.90
2019-05-25T12:36:31.897Z,29.40
2019-05-25T12:39:00.332Z,29.40
2019-05-25T12:41:28.964Z,30.20
2019-05-25T12:43:57.416Z,36.10
2019-05-25T12:46:25.895Z,35.40
2019-05-25T12:48:54.386Z,38.70
2019-05-25T12:51:22.915Z,41.40
2019-05-25T12:53:52.964Z,45.70
2019-05-25T12:56:21.410Z,44.10
2019-05-25T12:58:50.344Z,44.10
2019-05-25T13:01:20.798Z,51.90
2019-05-25T13:03:49.229Z,56.60
2019-05-25T13:06:18.472Z,56.10
2019-05-25T13:08:47.010Z,59.60
2019-05-25T13:11:15.441Z,61.40
2019-05-25T13:13:45.553Z,61.20
2019-05-25T13:16:14.077Z,60.90
2019-05-25T13:18:42.691Z,63.20
2019-05-25T13:21:11.178Z,62.50
2019-05-25T13:23:39.726Z,62.90
2019-05-25T13:26:08.160Z,63.60
2019-05-25T13:28:36.626Z,66.40
2019-05-25T13:31:11.734Z,66.30
2019-05-25T13:33:35.418Z,63.50
2019-05-25T13:36:03.910Z,63.20
2019-05-25T13:38:32.352Z,62.80
2019-05-25T13:41:00.785Z,65.10
2019-05-25T13:43:29.286Z,62.40
2019-05-25T13:45:57.799Z,67.30
2019-05-25T13:48:26.242Z,58.50
2019-05-25T13:50:54.763Z,61.20
2019-05-25T13:53:23.219Z,60.60
2019-05-25T13:55:51.680Z,58.40
2019-05-25T13:58:20.123Z,62.40
2019-05-25T14:00:48.562Z,46.50
2019-05-25T14:03:17.353Z,55.50
2019-05-25T14:05:45.966Z,51.20
2019-05-25T14:08:14.424Z,51.30
2019-05-25T14:10:42.942Z,44.80
2019-05-25T14:13:11.368Z,44.10
2019-05-25T14:15:39.806Z,49.10
2019-05-25T14:18:08.287Z,52.50
2019-05-25T14:20:36.748Z,48.70
2019-05-25T14:23:05.184Z,50.40
2019-05-25T14:25:33.696Z,45.40
2019-05-25T14:28:02.127Z,44.90
2019-05-25T14:30:30.612Z,40.60
2019-05-25T14:32:59.104Z,48.70
2019-05-25T14:35:27.616Z,56.60
2019-05-25T14:37:56.054Z,49.80
2019-05-25T14:40:24.495Z,52.60
2019-05-25T14:42:52.975Z,48.00
2019-05-25T14:45:21.582Z,48.60
2019-05-25T14:47:50.007Z,57.40
2019-05-25T14:50:20.619Z,56.90
2019-05-25T14:52:49.026Z,55.70
2019-05-25T14:55:17.465Z,53.40
2019-05-25T14:57:45.888Z,55.00
2019-05-25T15:00:15.938Z,58.30
2019-05-25T15:02:44.539Z,53.00
2019-05-25T15:05:13.324Z,50.00
2019-05-25T15:07:41.843Z,51.90
2019-05-25T15:10:12.092Z,47.80
2019-05-25T15:12:40.530Z,45.60
2019-05-25T15:15:10.819Z,42.70
2019-05-25T15:17:40.990Z,46.40
2019-05-25T15:20:11.632Z,50.80
2019-05-25T15:22:40.050Z,46.30
2019-05-25T15:25:09.307Z,43.00
2019-05-25T15:27:37.843Z,43.70
2019-05-25T15:30:07.394Z,45.90
2019-05-25T15:32:35.871Z,44.20
2019-05-25T15:35:05.834Z,45.50
2019-05-25T15:37:35.991Z,46.90
2019-05-25T15:40:09.838Z,43.70
2019-05-25T15:42:38.502Z,43.80
2019-05-25T15:45:07.467Z,43.80
2019-05-25T15:47:36.158Z,45.00
2019-05-25T15:50:09.513Z,44.20
2019-05-25T15:52:38.268Z,44.80
2019-05-25T15:55:08.394Z,43.80
2019-05-25T15:57:37.008Z,44.00
2019-05-25T16:00:12.136Z,44.40
2019-05-25T16:02:40.597Z,46.20
2019-05-25T16:05:09.373Z,45.30
2019-05-25T16:07:40.174Z,47.20
2019-05-25T16:10:09.850Z,46.20
2019-05-25T16:12:38.287Z,45.60
2019-05-25T16:15:08.363Z,47.00
2019-05-25T16:17:37.059Z,46.60
2019-05-25T16:20:05.687Z,44.90
2019-05-25T16:22:35.760Z,44.20
2019-05-25T16:25:06.864Z,44.90
2019-05-25T16:27:35.323Z,48.50
2019-05-25T16:30:06.092Z,48.30
2019-05-25T16:32:34.549Z,46.60
2019-05-25T16:35:03.168Z,46.50
2019-05-25T16:37:31.736Z,48.50
2019-05-25T16:40:00.322Z,49.80
2019-05-25T16:42:28.737Z,47.30
2019-05-25T16:44:57.187Z,48.70
2019-05-25T16:47:25.616Z,49.70
2019-05-25T16:49:54.060Z,51.60
2019-05-25T16:52:22.485Z,53.80
2019-05-25T16:54:51.117Z,54.00
2019-05-25T16:57:19.546Z,50.30
2019-05-25T16:59:47.979Z,51.80
2019-05-25T17:02:16.501Z,51.50
2019-05-25T17:04:45.039Z,51.40
2019-05-25T17:07:13.520Z,52.90
2019-05-25T17:09:41.955Z,55.10
2019-05-25T17:12:10.446Z,58.40
2019-05-25T17:14:38.935Z,60.40
2019-05-25T17:17:08.900Z,55.40
2019-05-25T17:19:37.425Z,52.60
2019-05-25T17:22:06.028Z,53.60
2019-05-25T17:24:34.510Z,57.50
2019-05-25T17:27:02.935Z,53.50
2019-05-25T17:29:31.448Z,52.80
2019-05-25T17:32:00.086Z,54.90
2019-05-25T17:34:28.716Z,56.10
2019-05-25T17:36:57.201Z,59.00
2019-05-25T17:39:25.627Z,59.50
2019-05-25T17:41:55.607Z,61.50
2019-05-25T17:44:24.046Z,54.50
2019-05-25T17:46:52.494Z,52.60
2019-05-25T17:49:20.902Z,58.50
2019-05-25T17:51:49.429Z,55.50
2019-05-25T17:54:17.850Z,52.60
2019-05-25T17:56:46.318Z,53.50
2019-05-25T17:59:14.837Z,52.80
2019-05-25T18:01:43.308Z,51.60
2019-05-25T18:04:11.997Z,54.50
2019-05-25T18:06:40.448Z,60.30
2019-05-25T18:09:09.160Z,56.20
2019-05-25T18:11:37.609Z,52.40
2019-05-25T18:14:06.163Z,53.00
2019-05-25T18:16:34.628Z,60.10
2019-05-25T18:19:03.065Z,60.30
2019-05-25T18:21:31.507Z,61.40
2019-05-25T18:23:59.991Z,61.00
2019-05-25T18:26:28.472Z,60.70
2019-05-25T18:28:56.975Z,61.40
2019-05-25T18:31:25.431Z,60.60
2019-05-25T18:33:53.952Z,61.20
2019-05-25T18:36:22.403Z,62.90
2019-05-25T18:38:51.041Z,64.70
2019-05-25T18:41:19.485Z,66.00
2019-05-25T18:43:48.499Z,66.30
2019-05-25T18:46:17.024Z,65.80
2019-05-25T18:48:45.463Z,63.10
2019-05-25T18:51:13.888Z,62.60
2019-05-25T18:53:42.358Z,61.90
2019-05-25T18:56:10.912Z,63.10
2019-05-25T18:58:39.372Z,63.10
2019-05-25T19:01:07.930Z,61.40
2019-05-25T19:03:36.375Z,61.90
2019-05-25T19:06:04.937Z,62.10
2019-05-25T19:08:33.592Z,61.40
2019-05-25T19:11:02.024Z,61.30
2019-05-25T19:13:30.535Z,62.00
2019-05-25T19:15:58.989Z,62.30
2019-05-25T19:18:27.446Z,64.90
2019-05-25T19:20:55.999Z,63.80
2019-05-25T19:23:24.455Z,64.50
2019-05-25T19:25:52.909Z,66.00
2019-05-25T19:28:21.437Z,67.20
2019-05-25T19:30:50.043Z,66.60
2019-05-25T19:33:18.476Z,66.90
2019-05-25T19:35:47.083Z,67.90
2019-05-25T19:38:15.494Z,68.60
2019-05-25T19:40:44.023Z,69.00
2019-05-25T19:43:12.482Z,69.50
2019-05-25T19:45:41.195Z,69.30
2019-05-25T19:48:09.869Z,68.60
2019-05-25T19:50:38.423Z,69.70
2019-05-25T19:53:08.482Z,69.90
2019-05-25T19:55:36.939Z,69.50
2019-05-25T19:58:05.751Z,69.20
2019-05-25T20:00:34.285Z,70.20
2019-05-25T20:03:02.778Z,71.60
2019-05-25T20:05:31.226Z,72.40
2019-05-25T20:07:59.644Z,71.40
2019-05-25T20:10:29.626Z,72.10
2019-05-25T20:12:58.155Z,72.10
2019-05-25T20:15:26.632Z,73.00
2019-05-25T20:17:55.064Z,74.10
2019-05-25T20:20:24.059Z,73.80
2019-05-25T20:22:52.551Z,74.00
2019-05-25T20:25:20.955Z,72.90
2019-05-25T20:27:49.418Z,72.80
2019-05-25T20:30:17.920Z,72.60
2019-05-25T20:32:46.427Z,72.80
2019-05-25T20:35:31.340Z,72.00
2019-05-25T20:37:46.987Z,71.70
2019-05-25T20:40:16.079Z,72.60
2019-05-25T20:42:44.935Z,72.00
2019-05-25T20:45:13.432Z,71.70
2019-05-25T20:47:41.859Z,73.00
2019-05-25T20:50:10.799Z,72.90
2019-05-25T20:52:39.242Z,72.80
2019-05-25T20:55:09.028Z,72.90
2019-05-25T20:57:37.534Z,73.50
2019-05-25T21:00:07.310Z,75.10
2019-05-25T21:02:37.371Z,75.20
2019-05-25T21:05:08.918Z,76.60
2019-05-25T21:07:37.511Z,77.50
2019-05-25T21:10:08.108Z,77.60
2019-05-25T21:12:36.615Z,77.50
2019-05-25T21:15:10.039Z,76.80
2019-05-25T21:17:38.492Z,76.10
2019-05-25T21:20:07.565Z,76.00
2019-05-25T21:22:36.331Z,75.80
2019-05-25T21:25:09.871Z,75.10
2019-05-25T21:27:38.335Z,75.40
2019-05-25T21:30:09.087Z,74.80
2019-05-25T21:32:37.646Z,75.00
2019-05-25T21:35:07.046Z,75.60
2019-05-25T21:37:35.460Z,75.80
2019-05-25T21:40:08.270Z,75.80
2019-05-25T21:42:36.771Z,75.70
2019-05-25T21:45:07.228Z,75.40
2019-05-25T21:47:35.720Z,75.50
2019-05-25T21:50:06.012Z,75.10
2019-05-25T21:52:34.437Z,75.80
2019-05-25T21:55:04.895Z,76.60
2019-05-25T21:57:33.311Z,76.00
2019-05-25T22:00:01.762Z,76.10
2019-05-25T22:02:30.196Z,76.00
2019-05-25T22:04:58.635Z,76.50
2019-05-25T22:07:27.059Z,76.50
2019-05-25T22:09:55.504Z,76.60
2019-05-25T22:12:23.940Z,77.80
2019-05-25T22:14:52.379Z,78.70
2019-05-25T22:17:20.794Z,80.10
2019-05-25T22:19:49.250Z,81.10
2019-05-25T22:22:17.668Z,81.30
2019-05-25T22:24:47.275Z,81.40
2019-05-25T22:27:15.714Z,81.00
2019-05-25T22:29:44.134Z,81.90
2019-05-25T22:32:12.673Z,82.20
2019-05-25T22:34:41.159Z,81.80
2019-05-25T22:37:09.606Z,82.50
2019-05-25T22:39:38.083Z,82.60
2019-05-25T22:42:06.501Z,82.10
2019-05-25T22:44:34.967Z,81.50
2019-05-25T22:47:03.499Z,81.60
2019-05-25T22:49:31.918Z,80.30
2019-05-25T22:52:00.365Z,80.70
2019-05-25T22:54:28.779Z,79.70
2019-05-25T22:56:57.387Z,79.00
2019-05-25T22:59:27.476Z,79.80
2019-05-25T23:01:55.914Z,80.30
2019-05-25T23:04:24.343Z,80.90
2019-05-25T23:06:57.600Z,81.50
2019-05-25T23:09:23.087Z,81.10
2019-05-25T23:11:51.659Z,81.00
2019-05-25T23:14:20.692Z,81.60
2019-05-25T23:16:49.159Z,82.20
2019-05-25T23:19:18.338Z,82.40
2019-05-25T23:21:46.797Z,82.00
2019-05-25T23:24:15.342Z,82.00
2019-05-25T23:26:43.789Z,81.30
2019-05-25T23:29:12.284Z,81.20
2019-05-25T23:31:45.081Z,81.70
2019-05-25T23:34:15.040Z,81.60
2019-05-25T23:36:43.557Z,81.90
2019-05-25T23:39:11.996Z,81.90
2019-05-25T23:41:40.428Z,82.40
2019-05-25T23:44:10.551Z,82.50
2019-05-25T23:46:38.983Z,82.20
2019-05-25T23:49:07.475Z,82.30
2019-05-25T23:51:35.892Z,82.10
2019-05-25T23:54:04.538Z,81.40
2019-05-25T23:56:32.964Z,81.20
2019-05-25T23:59:01.424Z,81.20
